createdAt,value
2023-01-11T00:02:02.420Z,11.70
2023-01-11T00:04:30.500Z,11.70
2023-01-11T00:06:58.080Z,11.60
2023-01-11T00:09:24.953Z,11.60
2023-01-11T00:11:51.810Z,11.70
2023-01-11T00:14:18.678Z,11.60
2023-01-11T00:16:45.536Z,11.70
2023-01-11T00:19:12.780Z,11.80
2023-01-11T00:21:40.180Z,11.70
2023-01-11T00:24:07.048Z,11.70
2023-01-11T00:26:33.920Z,11.70
2023-01-11T00:29:00.752Z,11.70
2023-01-11T00:31:27.667Z,11.70
2023-01-11T00:33:55.015Z,11.70
2023-01-11T00:36:21.844Z,11.70
2023-01-11T00:38:53.505Z,11.70
2023-01-11T00:41:40.622Z,11.80
2023-01-11T00:44:30.732Z,11.70
2023-01-11T00:47:17.357Z,11.80
2023-01-11T00:49:44.416Z,11.80
2023-01-11T00:52:12.186Z,11.90
2023-01-11T00:54:40.450Z,11.90
2023-01-11T00:57:08.586Z,12.00
2023-01-11T00:59:36.940Z,11.90
2023-01-11T01:02:04.461Z,11.90
2023-01-11T01:04:31.675Z,12.00
2023-01-11T01:06:58.524Z,12.00
2023-01-11T01:09:26.309Z,12.00
2023-01-11T01:11:53.167Z,12.00
2023-01-11T01:14:26.258Z,12.10
2023-01-11T01:16:55.072Z,12.10
2023-01-11T01:19:23.043Z,12.10
2023-01-11T01:21:50.742Z,12.10
2023-01-11T01:24:17.833Z,12.20
2023-01-11T01:26:44.642Z,12.20
2023-01-11T01:29:11.885Z,12.30
2023-01-11T01:31:38.724Z,12.20
2023-01-11T01:34:06.513Z,12.40
2023-01-11T01:36:33.618Z,12.20
2023-01-11T01:39:01.688Z,12.20
2023-01-11T01:41:28.870Z,12.30
2023-01-11T01:44:01.097Z,12.20
2023-01-11T01:46:31.481Z,12.20
2023-01-11T01:49:11.977Z,12.20
2023-01-11T01:51:52.304Z,12.20
2023-01-11T01:54:25.363Z,12.40
2023-01-11T01:56:57.362Z,12.20
2023-01-11T01:59:29.683Z,12.20
2023-01-11T02:01:57.109Z,12.20
2023-01-11T02:04:25.770Z,12.20
2023-01-11T02:06:58.532Z,12.30
2023-01-11T02:09:44.058Z,12.20
2023-01-11T02:12:11.495Z,12.20
2023-01-11T02:14:41.435Z,12.10
2023-01-11T02:17:09.213Z,12.20
2023-01-11T02:19:45.109Z,12.20
2023-01-11T02:22:42.316Z,12.10
2023-01-11T02:25:33.936Z,12.10
2023-01-11T02:28:31.200Z,12.00
2023-01-11T02:31:47.304Z,12.00
2023-01-11T02:34:21.732Z,12.10
2023-01-11T02:37:16.213Z,12.00
2023-01-11T02:40:13.066Z,12.00
2023-01-11T02:43:07.111Z,12.00
2023-01-11T02:45:57.941Z,12.00
2023-01-11T02:48:58.665Z,12.00
2023-01-11T02:51:40.998Z,12.00
2023-01-11T02:54:11.404Z,12.00
2023-01-11T02:56:43.098Z,12.00
2023-01-11T02:59:15.452Z,12.00
2023-01-11T03:01:53.271Z,12.20
2023-01-11T03:04:31.857Z,12.00
2023-01-11T03:07:45.748Z,12.20
2023-01-11T03:10:31.222Z,12.00
2023-01-11T03:13:10.052Z,12.10
2023-01-11T03:16:08.506Z,12.10
2023-01-11T03:18:52.357Z,12.10
2023-01-11T03:21:49.009Z,12.10
2023-01-11T03:24:38.890Z,12.10
2023-01-11T03:27:15.717Z,12.10
2023-01-11T03:29:59.435Z,12.10
2023-01-11T03:32:48.671Z,12.10
2023-01-11T03:35:35.675Z,12.10
2023-01-11T03:38:14.617Z,12.10
2023-01-11T03:40:54.272Z,12.00
2023-01-11T03:43:23.347Z,11.90
2023-01-11T03:46:04.774Z,11.90
2023-01-11T03:48:54.050Z,12.00
2023-01-11T03:51:30.556Z,12.00
2023-01-11T03:54:00.485Z,12.00
2023-01-11T03:56:41.105Z,12.00
2023-01-11T03:59:08.151Z,12.00
2023-01-11T04:01:35.686Z,12.00
2023-01-11T04:04:02.515Z,12.00
2023-01-11T04:06:30.391Z,12.00
2023-01-11T04:08:57.190Z,12.10
2023-01-11T04:11:24.023Z,12.10
2023-01-11T04:13:50.834Z,12.00
2023-01-11T04:16:17.679Z,12.10
2023-01-11T04:18:44.697Z,12.10
2023-01-11T04:21:12.739Z,12.10
2023-01-11T04:23:39.623Z,12.10
2023-01-11T04:26:06.949Z,12.20
2023-01-11T04:28:34.588Z,12.10
2023-01-11T04:31:01.415Z,12.20
2023-01-11T04:33:28.219Z,12.20
2023-01-11T04:35:55.188Z,12.20
2023-01-11T04:38:24.942Z,12.20
2023-01-11T04:41:11.787Z,12.20
2023-01-11T04:43:38.591Z,12.10
2023-01-11T04:46:05.535Z,12.10
2023-01-11T04:48:33.392Z,12.20
2023-01-11T04:51:00.307Z,12.10
2023-01-11T04:53:27.119Z,12.30
2023-01-11T04:55:54.002Z,12.10
2023-01-11T04:58:20.911Z,12.00
2023-01-11T05:00:50.311Z,12.10
2023-01-11T05:03:17.288Z,12.00
2023-01-11T05:05:44.034Z,12.00
2023-01-11T05:08:10.758Z,12.00
2023-01-11T05:10:37.648Z,11.90
2023-01-11T05:13:04.343Z,12.00
2023-01-11T05:15:31.191Z,11.90
2023-01-11T05:17:58.066Z,11.90
2023-01-11T05:20:24.847Z,11.90
2023-01-11T05:22:52.620Z,11.90
2023-01-11T05:25:19.432Z,11.90
2023-01-11T05:27:46.123Z,11.90
2023-01-11T05:30:13.743Z,12.00
2023-01-11T05:32:43.937Z,11.90
2023-01-11T05:35:11.184Z,11.90
2023-01-11T05:37:38.691Z,12.00
2023-01-11T05:40:07.064Z,12.00
2023-01-11T05:42:33.868Z,12.00
2023-01-11T05:45:19.189Z,12.00
2023-01-11T05:47:45.990Z,12.00
2023-01-11T05:50:12.824Z,12.10
2023-01-11T05:52:39.813Z,12.00
2023-01-11T05:55:07.355Z,12.00
2023-01-11T05:57:34.153Z,12.00
2023-01-11T06:00:00.948Z,11.90
2023-01-11T06:02:27.813Z,11.90
2023-01-11T06:04:55.565Z,11.90
2023-01-11T06:07:24.988Z,11.90
2023-01-11T06:09:51.865Z,11.90
2023-01-11T06:12:18.700Z,11.80
2023-01-11T06:14:45.864Z,11.90
2023-01-11T06:17:12.995Z,11.90
2023-01-11T06:19:39.756Z,11.90
2023-01-11T06:22:06.634Z,11.90
2023-01-11T06:24:33.413Z,11.80
2023-01-11T06:27:00.133Z,11.80
2023-01-11T06:29:26.923Z,11.80
2023-01-11T06:31:53.800Z,11.80
2023-01-11T06:34:20.567Z,11.80
2023-01-11T06:36:47.348Z,11.80
2023-01-11T06:39:14.146Z,11.80
2023-01-11T06:41:41.008Z,11.80
2023-01-11T06:44:08.379Z,11.60
2023-01-11T06:46:36.184Z,11.60
2023-01-11T06:49:04.041Z,11.50
2023-01-11T06:51:30.901Z,11.50
2023-01-11T06:53:57.716Z,11.40
2023-01-11T06:56:24.651Z,11.40
2023-01-11T06:58:52.550Z,11.40
2023-01-11T07:01:22.622Z,11.30
2023-01-11T07:03:50.118Z,11.40
2023-01-11T07:06:17.235Z,11.20
2023-01-11T07:08:44.108Z,11.10
2023-01-11T07:11:11.218Z,11.00
2023-01-11T07:13:39.214Z,11.00
2023-01-11T07:16:06.200Z,11.00
2023-01-11T07:18:33.394Z,11.00
2023-01-11T07:21:00.252Z,10.90
2023-01-11T07:23:27.248Z,10.90
2023-01-11T07:25:54.255Z,10.80
2023-01-11T07:28:22.148Z,10.80
2023-01-11T07:30:58.784Z,10.80
2023-01-11T07:33:26.396Z,10.80
2023-01-11T07:35:55.733Z,10.50
2023-01-11T07:38:22.724Z,10.60
2023-01-11T07:40:49.676Z,10.50
2023-01-11T07:43:18.806Z,10.50
2023-01-11T07:45:49.724Z,10.50
2023-01-11T07:48:21.235Z,10.40
2023-01-11T07:50:48.892Z,10.30
2023-01-11T07:53:18.820Z,10.30
2023-01-11T07:55:47.093Z,10.30
2023-01-11T07:58:15.575Z,10.10
2023-01-11T08:00:43.362Z,10.20
2023-01-11T08:03:11.383Z,10.20
2023-01-11T08:05:39.015Z,10.10
2023-01-11T08:08:09.035Z,10.10
2023-01-11T08:10:38.394Z,10.20
2023-01-11T08:13:25.197Z,10.20
2023-01-11T08:15:52.449Z,10.20
2023-01-11T08:18:19.729Z,10.40
2023-01-11T08:20:47.507Z,10.30
2023-01-11T08:23:14.449Z,10.30
2023-01-11T08:25:41.243Z,10.40
2023-01-11T08:28:08.225Z,10.30
2023-01-11T08:30:36.086Z,10.20
2023-01-11T08:33:04.009Z,10.20
2023-01-11T08:35:31.544Z,10.10
2023-01-11T08:37:59.724Z,10.10
2023-01-11T08:40:26.603Z,10.00
2023-01-11T08:42:56.845Z,10.00
2023-01-11T08:45:25.723Z,10.10
2023-01-11T08:47:54.515Z,10.00
2023-01-11T08:50:22.525Z,9.80
2023-01-11T08:52:51.013Z,9.80
2023-01-11T08:55:20.965Z,9.80
2023-01-11T08:57:47.985Z,9.80
2023-01-11T09:00:18.322Z,9.70
2023-01-11T09:02:45.780Z,9.70
2023-01-11T09:05:12.739Z,9.70
2023-01-11T09:07:40.802Z,9.70
2023-01-11T09:10:08.187Z,9.60
2023-01-11T09:12:35.443Z,9.60
2023-01-11T09:15:02.853Z,9.90
2023-01-11T09:17:29.576Z,9.70
2023-01-11T09:19:56.422Z,9.80
2023-01-11T09:22:23.541Z,9.80
2023-01-11T09:24:50.298Z,9.90
2023-01-11T09:27:17.261Z,9.90
2023-01-11T09:29:45.992Z,9.90
2023-01-11T09:32:12.838Z,10.00
2023-01-11T09:34:41.147Z,10.00
2023-01-11T09:37:07.928Z,10.10
2023-01-11T09:39:35.315Z,10.10
2023-01-11T09:42:36.588Z,10.10
2023-01-11T09:45:13.660Z,10.20
2023-01-11T09:48:00.390Z,10.20
2023-01-11T09:50:31.029Z,10.30
2023-01-11T09:53:08.329Z,10.30
2023-01-11T09:55:42.708Z,10.30
2023-01-11T09:58:38.441Z,10.40
2023-01-11T10:01:19.297Z,10.40
2023-01-11T10:04:32.792Z,10.50
2023-01-11T10:07:34.789Z,10.50
2023-01-11T10:18:29.108Z,10.70
2023-01-11T10:19:48.239Z,10.80
2023-01-11T10:22:27.919Z,10.90
2023-01-11T10:25:17.042Z,10.90
2023-01-11T10:27:55.484Z,11.00
2023-01-11T10:30:52.092Z,11.00
2023-01-11T10:34:02.071Z,11.10
2023-01-11T10:37:21.245Z,11.10
2023-01-11T10:40:26.776Z,11.20
2023-01-11T10:43:03.252Z,11.30
2023-01-11T10:45:47.211Z,11.30
2023-01-11T10:48:22.962Z,11.30
2023-01-11T10:51:27.775Z,11.40
2023-01-11T10:53:55.066Z,11.50
2023-01-11T10:57:01.963Z,11.40
2023-01-11T11:00:27.870Z,11.60
2023-01-11T11:03:07.903Z,11.60
2023-01-11T11:05:52.618Z,11.80
2023-01-11T11:08:32.080Z,12.00
2023-01-11T11:11:04.398Z,12.30
2023-01-11T11:14:22.581Z,12.70
2023-01-11T11:17:01.737Z,12.80
2023-01-11T11:19:32.645Z,12.90
2023-01-11T11:22:00.417Z,13.00
2023-01-11T11:24:33.105Z,12.90
2023-01-11T11:27:08.314Z,12.70
2023-01-11T11:29:42.509Z,12.50
2023-01-11T11:32:24.486Z,12.40
2023-01-11T11:34:52.385Z,12.30
2023-01-11T11:37:28.358Z,12.20
2023-01-11T11:39:56.178Z,12.00
2023-01-11T11:42:23.629Z,11.90
2023-01-11T11:45:09.480Z,11.90
2023-01-11T11:47:37.523Z,11.80
2023-01-11T11:50:43.072Z,11.80
2023-01-11T11:53:35.442Z,11.90
2023-01-11T11:56:08.183Z,12.00
2023-01-11T11:58:47.969Z,12.00
2023-01-11T12:01:23.791Z,12.00
2023-01-11T12:03:54.388Z,12.00
2023-01-11T12:06:27.498Z,12.10
2023-01-11T12:08:56.496Z,12.00
2023-01-11T12:11:32.781Z,11.90
2023-01-11T12:14:11.897Z,12.00
2023-01-11T12:16:43.524Z,12.10
2023-01-11T12:19:35.002Z,12.20
2023-01-11T12:22:18.401Z,12.10
2023-01-11T12:25:03.014Z,12.00
2023-01-11T12:27:51.689Z,11.90
2023-01-11T12:30:42.876Z,11.90
2023-01-11T12:33:35.479Z,12.00
2023-01-11T12:36:23.290Z,12.00
2023-01-11T12:39:27.764Z,12.10
2023-01-11T12:42:09.954Z,12.10
2023-01-11T12:45:01.605Z,12.00
2023-01-11T12:48:09.478Z,11.90
2023-01-11T12:51:07.481Z,11.90
2023-01-11T12:53:56.037Z,11.90
2023-01-11T12:56:49.818Z,12.00
2023-01-11T12:59:35.497Z,12.10
2023-01-11T13:02:18.409Z,12.10
2023-01-11T13:05:23.462Z,12.10
2023-01-11T13:08:08.023Z,12.20
2023-01-11T13:10:43.779Z,12.10
2023-01-11T13:13:36.477Z,12.10
2023-01-11T13:16:18.520Z,12.20
2023-01-11T13:18:59.262Z,12.30
2023-01-11T13:21:33.469Z,12.50
2023-01-11T13:24:09.960Z,12.60
2023-01-11T13:26:44.012Z,12.50
2023-01-11T13:29:23.940Z,12.50
2023-01-11T13:31:52.833Z,12.40
2023-01-11T13:34:23.739Z,12.30
2023-01-11T13:36:57.631Z,12.20
2023-01-11T13:39:42.544Z,12.00
2023-01-11T13:42:17.577Z,11.90
2023-01-11T13:44:53.550Z,11.80
2023-01-11T13:47:34.187Z,11.80
2023-01-11T13:50:43.121Z,11.70
2023-01-11T13:53:45.230Z,11.70
2023-01-11T13:56:47.872Z,11.70
2023-01-11T13:59:24.614Z,11.70
2023-01-11T14:02:30.612Z,11.80
2023-01-11T14:05:16.211Z,12.10
2023-01-11T14:08:10.392Z,12.30
2023-01-11T14:10:43.431Z,12.40
2023-01-11T14:13:42.191Z,12.30
2023-01-11T14:16:31.508Z,12.20
2023-01-11T14:19:28.118Z,12.10
2023-01-11T14:22:09.819Z,12.20
2023-01-11T14:24:40.521Z,12.30
2023-01-11T14:27:18.273Z,12.50
2023-01-11T14:30:04.487Z,12.70
2023-01-11T14:33:03.368Z,12.60
2023-01-11T14:35:50.472Z,12.50
2023-01-11T14:39:00.753Z,12.70
2023-01-11T14:42:01.252Z,12.40
2023-01-11T14:44:34.615Z,12.40
2023-01-11T14:47:17.574Z,12.60
2023-01-11T14:50:14.104Z,12.60
2023-01-11T14:52:42.070Z,12.60
2023-01-11T14:55:20.378Z,12.80
2023-01-11T14:57:56.489Z,12.70
2023-01-11T15:00:23.171Z,12.30
2023-01-11T15:03:12.882Z,12.00
2023-01-11T15:06:00.416Z,11.70
2023-01-11T15:08:41.693Z,11.50
2023-01-11T15:11:20.910Z,11.50
2023-01-11T15:13:55.994Z,11.30
2023-01-11T15:16:53.641Z,11.30
2023-01-11T15:19:27.588Z,11.30
2023-01-11T15:21:56.181Z,11.30
2023-01-11T15:24:28.248Z,11.00
2023-01-11T15:26:57.431Z,10.90
2023-01-11T15:29:33.822Z,10.90
2023-01-11T15:32:25.236Z,11.00
2023-01-11T15:34:52.504Z,10.90
2023-01-11T15:37:44.154Z,11.00
2023-01-11T15:40:20.534Z,10.80
2023-01-11T15:43:05.767Z,10.80
2023-01-11T15:46:09.451Z,10.80
2023-01-11T15:49:07.384Z,10.80
2023-01-11T15:52:02.902Z,10.70
2023-01-11T15:55:17.566Z,10.80
2023-01-11T15:57:47.985Z,10.80
2023-01-11T16:00:32.492Z,10.70
2023-01-11T16:03:42.073Z,10.70
2023-01-11T16:06:33.773Z,10.60
2023-01-11T16:09:41.201Z,10.60
2023-01-11T16:12:40.391Z,10.40
2023-01-11T16:15:25.470Z,10.40
2023-01-11T16:17:53.274Z,10.30
2023-01-11T16:20:19.956Z,10.30
2023-01-11T16:23:05.102Z,10.30
2023-01-11T16:25:37.197Z,10.20
2023-01-11T16:28:04.752Z,10.20
2023-01-11T16:30:31.850Z,10.20
2023-01-11T16:33:22.142Z,10.20
2023-01-11T16:35:49.108Z,10.10
2023-01-11T16:38:22.303Z,10.10
2023-01-11T16:40:53.966Z,10.10
2023-01-11T16:43:25.519Z,10.00
2023-01-11T16:45:56.717Z,10.00
2023-01-11T16:48:25.544Z,9.90
2023-01-11T16:51:02.732Z,9.90
2023-01-11T16:53:33.552Z,9.90
2023-01-11T16:56:07.615Z,9.90
2023-01-11T16:58:38.763Z,9.90
2023-01-11T17:01:11.111Z,9.90
2023-01-11T17:03:58.346Z,9.90
2023-01-11T17:06:26.035Z,9.90
2023-01-11T17:08:55.439Z,9.90
2023-01-11T17:11:28.252Z,9.80
2023-01-11T17:14:40.106Z,9.90
2023-01-11T17:17:10.781Z,9.90
2023-01-11T17:19:51.475Z,10.00
2023-01-11T17:22:39.419Z,10.00
2023-01-11T17:25:15.201Z,10.00
2023-01-11T17:27:49.973Z,10.10
2023-01-11T17:30:21.628Z,10.10
2023-01-11T17:32:53.645Z,10.10
2023-01-11T17:35:23.781Z,10.10
2023-01-11T17:37:58.804Z,10.10
2023-01-11T17:40:32.368Z,10.20
2023-01-11T17:43:37.762Z,10.20
2023-01-11T17:46:05.390Z,10.20
2023-01-11T17:48:33.817Z,10.20
2023-01-11T17:51:03.045Z,10.30
2023-01-11T17:53:32.540Z,10.30
2023-01-11T17:56:09.879Z,10.20
2023-01-11T17:58:38.002Z,10.20
2023-01-11T18:01:05.024Z,10.20
2023-01-11T18:03:38.915Z,10.20
2023-01-11T18:06:30.832Z,10.10
2023-01-11T18:08:59.120Z,10.20
2023-01-11T18:11:44.309Z,10.20
2023-01-11T18:14:21.536Z,10.30
2023-01-11T18:17:02.175Z,10.30
2023-01-11T18:19:40.222Z,10.40
2023-01-11T18:22:32.056Z,10.50
2023-01-11T18:25:01.077Z,10.40
2023-01-11T18:27:32.410Z,10.40
2023-01-11T18:30:02.394Z,10.40
2023-01-11T18:32:42.654Z,10.50
2023-01-11T18:35:18.387Z,10.40
2023-01-11T18:37:45.476Z,10.40
2023-01-11T18:40:14.269Z,10.40
2023-01-11T18:42:41.472Z,10.40
2023-01-11T18:45:11.009Z,10.40
2023-01-11T18:47:37.856Z,10.40
2023-01-11T18:50:05.119Z,10.40
2023-01-11T18:52:32.171Z,10.40
2023-01-11T18:54:59.026Z,10.40
2023-01-11T18:57:25.818Z,10.30
2023-01-11T18:59:52.888Z,10.40
2023-01-11T19:02:43.414Z,10.40
2023-01-11T19:05:12.944Z,10.40
2023-01-11T19:07:39.800Z,10.40
2023-01-11T19:10:10.751Z,10.60
2023-01-11T19:12:37.633Z,10.40
2023-01-11T19:15:04.806Z,10.40
2023-01-11T19:17:32.130Z,10.50
2023-01-11T19:20:00.151Z,10.40
2023-01-11T19:22:27.115Z,10.50
2023-01-11T19:24:54.680Z,10.50
2023-01-11T19:27:22.119Z,10.50
2023-01-11T19:29:48.978Z,10.50
2023-01-11T19:32:18.391Z,10.50
2023-01-11T19:34:45.353Z,10.50
2023-01-11T19:37:12.152Z,10.50
2023-01-11T19:39:40.413Z,10.50
2023-01-11T19:42:07.636Z,10.40
2023-01-11T19:44:36.971Z,10.30
2023-01-11T19:47:11.524Z,10.30
2023-01-11T19:49:40.076Z,10.20
2023-01-11T19:52:12.326Z,10.10
2023-01-11T19:54:41.939Z,10.00
2023-01-11T19:57:14.190Z,10.10
2023-01-11T19:59:41.752Z,10.00
2023-01-11T20:02:13.721Z,10.00
2023-01-11T20:04:41.433Z,10.10
2023-01-11T20:07:09.921Z,10.10
2023-01-11T20:09:37.813Z,10.10
2023-01-11T20:12:10.658Z,10.30
2023-01-11T20:14:38.923Z,10.10
2023-01-11T20:17:06.276Z,10.20
2023-01-11T20:19:33.303Z,10.30
2023-01-11T20:22:00.252Z,10.20
2023-01-11T20:24:30.333Z,10.20
2023-01-11T20:26:59.719Z,10.30
2023-01-11T20:29:26.738Z,10.30
2023-01-11T20:31:53.688Z,10.20
2023-01-11T20:34:20.787Z,10.30
2023-01-11T20:36:48.824Z,10.30
2023-01-11T20:39:15.822Z,10.40
2023-01-11T20:41:49.007Z,10.20
2023-01-11T20:44:32.926Z,10.20
2023-01-11T20:47:03.667Z,10.40
2023-01-11T20:49:31.241Z,10.20
2023-01-11T20:51:58.128Z,10.10
2023-01-11T20:54:25.041Z,10.10
2023-01-11T20:56:52.613Z,10.10
2023-01-11T20:59:20.614Z,10.10
2023-01-11T21:01:48.715Z,10.00
2023-01-11T21:04:16.873Z,10.00
2023-01-11T21:06:45.865Z,10.00
2023-01-11T21:09:18.438Z,9.90
2023-01-11T21:11:52.469Z,9.90
2023-01-11T21:14:19.957Z,9.90
2023-01-11T21:16:47.115Z,9.90
2023-01-11T21:19:15.516Z,9.80
2023-01-11T21:21:43.779Z,9.80
2023-01-11T21:24:13.320Z,9.70
2023-01-11T21:26:42.180Z,9.60
2023-01-11T21:29:10.507Z,9.70
2023-01-11T21:31:38.817Z,9.50
2023-01-11T21:34:06.243Z,9.40
2023-01-11T21:36:33.278Z,9.30
2023-01-11T21:39:02.526Z,9.10
2023-01-11T21:41:50.273Z,9.10
2023-01-11T21:44:18.828Z,9.20
2023-01-11T21:46:46.669Z,9.20
2023-01-11T21:49:13.892Z,9.20
2023-01-11T21:51:41.815Z,9.20
2023-01-11T21:54:12.097Z,9.20
2023-01-11T21:56:38.999Z,9.20
2023-01-11T21:59:05.980Z,9.20
2023-01-11T22:01:33.212Z,9.10
2023-01-11T22:04:03.822Z,9.20
2023-01-11T22:06:30.647Z,9.40
2023-01-11T22:08:57.996Z,9.20
2023-01-11T22:11:24.753Z,9.20
2023-01-11T22:13:51.746Z,9.20
2023-01-11T22:16:18.701Z,9.30
2023-01-11T22:18:46.591Z,9.30
2023-01-11T22:21:16.942Z,9.30
2023-01-11T22:23:45.280Z,9.30
2023-01-11T22:26:14.285Z,9.40
2023-01-11T22:29:00.153Z,9.30
2023-01-11T22:31:31.166Z,9.30
2023-01-11T22:33:59.260Z,9.30
2023-01-11T22:36:27.614Z,9.30
2023-01-11T22:38:55.787Z,9.30
2023-01-11T22:41:23.768Z,9.20
2023-01-11T22:43:50.886Z,9.20
2023-01-11T22:46:42.324Z,9.20
2023-01-11T22:49:14.741Z,9.40
2023-01-11T22:51:42.971Z,9.30
2023-01-11T22:54:10.756Z,9.30
2023-01-11T22:56:38.930Z,9.30
2023-01-11T22:59:06.203Z,9.30
2023-01-11T23:01:35.169Z,9.40
2023-01-11T23:04:02.856Z,9.40
2023-01-11T23:06:37.471Z,9.40
2023-01-11T23:09:09.376Z,9.40
2023-01-11T23:11:56.754Z,9.50
2023-01-11T23:14:32.761Z,9.50
2023-01-11T23:17:07.332Z,9.50
2023-01-11T23:19:40.337Z,9.70
2023-01-11T23:22:09.249Z,9.60
2023-01-11T23:24:37.724Z,9.60
2023-01-11T23:27:04.763Z,9.70
2023-01-11T23:29:31.846Z,9.80
2023-01-11T23:31:58.818Z,9.90
2023-01-11T23:34:25.639Z,9.70
2023-01-11T23:36:52.428Z,9.80
2023-01-11T23:39:19.220Z,9.80
2023-01-11T23:42:04.992Z,9.90
2023-01-11T23:44:32.067Z,9.80
2023-01-11T23:47:17.474Z,9.90
2023-01-11T23:49:44.636Z,9.90
2023-01-11T23:52:11.822Z,9.90
2023-01-11T23:54:38.739Z,9.90
2023-01-11T23:57:05.503Z,9.90
2023-01-11T23:59:32.682Z,9.90
